Terminal Aerodrome Forecast
Issued by NWS Buffalo, NY

Home | Current Version | Previous Version | Text Only | Print | Product List | Glossary On
Versions: 1 2 3 4 5 6 7 8 9 10 11 12 13 14 15 16 17 18 19 20 21 22 23 24 25 26
530
FTUS41 KBUF 121736 AAB
TAFROC
TAF AMD
KROC 121736Z 1218/1318 23016G24KT P6SM BKN035
     FM122000 23016G24KT P6SM VCSH OVC035
     FM130000 25013KT 3SM -SHSN OVC012
     FM130200 29015G25KT 1/4SM SQ OVC012
     FM130300 31017G25KT P6SM OVC025
     FM130800 31017G26KT 6SM BLSN VCSH OVC020
     FM131200 30020G27KT 2SM -SN BLSN OVC015=

USA.gov is the U.S. government's official web portal to all federal, state and local government web resources and services.